Time;durP1;ratioP1;P1;durP2;ratioP2;P2;SDS_P1;SDS_P2;PMS_P1;PMS_P2;Temp;Humidity;BMP_temperature;BMP_pressure;BME280_temperature;BME280_humidity;BME280_pressure;Samples;Min_cycle;Max_cycle;Signal;HPM_P1;HPM_P2
2022/04/09 00:00:32;;;;;;;10.10;9.00;;;;;;;6.63;73.78;95724.94;108012;1290;22407;-84
2022/04/09 00:03:03;;;;;;;14.10;12.70;;;;;;;6.59;73.87;95715.46;108000;1290;22444;-83
2022/04/09 00:05:31;;;;;;;11.00;9.10;;;;;;;6.58;73.82;95742.78;107993;1290;23083;-83
2022/04/09 00:07:59;;;;;;;10.20;9.10;;;;;;;6.52;73.73;95743.92;108010;1290;22438;-83
2022/04/09 00:10:27;;;;;;;10.10;9.00;;;;;;;6.47;73.65;95732.35;108019;1290;22508;-89
2022/04/09 00:12:55;;;;;;;12.80;11.50;;;;;;;6.43;74.12;95729.86;108129;1290;22309;-89
2022/04/09 00:15:23;;;;;;;11.60;10.50;;;;;;;6.43;74.32;95736.25;108121;1290;22316;-88
2022/04/09 00:17:51;;;;;;;11.50;9.90;;;;;;;6.42;74.49;95740.27;108001;1290;22293;-85
2022/04/09 00:20:19;;;;;;;15.20;13.60;;;;;;;6.41;74.26;95735.89;107694;1290;23101;-84
2022/04/09 00:22:47;;;;;;;13.80;12.40;;;;;;;6.39;74.60;95724.25;107989;1290;22385;-84
2022/04/09 00:25:21;;;;;;;10.50;9.20;;;;;;;6.39;74.41;95721.52;107999;1289;22295;-87
2022/04/09 00:27:53;;;;;;;11.50;10.30;;;;;;;6.42;74.48;95718.41;107995;1289;22394;-86
2022/04/09 00:30:21;;;;;;;11.40;10.30;;;;;;;6.48;74.78;95724.60;107871;1290;187379;-89
2022/04/09 00:32:49;;;;;;;11.30;10.20;;;;;;;6.53;74.99;95728.09;108064;1290;22311;-84
2022/04/09 00:35:21;;;;;;;12.80;11.50;;;;;;;6.53;74.91;95731.73;107727;1290;22452;-89
2022/04/09 00:37:53;;;;;;;13.90;12.60;;;;;;;6.49;74.64;95733.13;107686;1290;22308;-87
2022/04/09 00:40:39;;;;;;;14.90;12.90;;;;;;;6.48;74.74;95730.11;107891;1290;22360;-88
2022/04/09 00:43:27;;;;;;;15.50;13.90;;;;;;;6.47;74.62;95717.20;107999;1290;22521;-89
2022/04/09 00:45:57;;;;;;;15.90;14.30;;;;;;;6.43;74.77;95716.23;107995;1290;22263;-88
2022/04/09 00:48:36;;;;;;;16.40;14.70;;;;;;;6.42;75.01;95709.23;107987;1289;22519;-87
2022/04/09 00:51:04;;;;;;;18.40;16.50;;;;;;;6.41;75.21;95693.45;107673;1290;22261;-86
2022/04/09 00:53:36;;;;;;;18.00;16.10;;;;;;;6.44;75.35;95695.64;107690;1290;22245;-87
2022/04/09 00:56:13;;;;;;;17.50;15.80;;;;;;;6.48;75.05;95678.65;108014;1290;22388;-88
2022/04/09 00:59:03;;;;;;;18.90;17.10;;;;;;;6.53;75.54;95675.40;108019;1290;22598;-87
2022/04/09 01:01:33;;;;;;;19.20;17.20;;;;;;;6.58;75.51;95677.59;107997;1290;22286;-86
2022/04/09 01:04:05;;;;;;;16.00;14.40;;;;;;;6.55;75.38;95687.33;107682;1290;22257;-87
2022/04/09 01:06:34;;;;;;;15.40;13.90;;;;;;;6.45;75.23;95692.92;107926;1290;23051;-87
2022/04/09 01:09:04;;;;;;;16.40;14.70;;;;;;;6.38;75.26;95688.77;107834;1290;22295;-88
2022/04/09 01:11:34;;;;;;;17.40;15.70;;;;;;;6.37;75.48;95685.61;107959;1290;22278;-89
2022/04/09 01:14:03;;;;;;;17.90;16.20;;;;;;;6.40;75.78;95687.38;107865;1290;22326;-89
2022/04/09 01:16:31;;;;;;;19.90;17.90;;;;;;;6.43;75.68;95681.01;107658;1290;22430;-87
2022/04/09 01:19:01;;;;;;;18.80;17.00;;;;;;;6.46;75.95;95681.18;107867;1290;22428;-87
2022/04/09 01:21:33;;;;;;;16.50;14.90;;;;;;;6.49;75.97;95689.69;107524;1290;22423;-89
2022/04/09 01:24:04;;;;;;;15.50;14.00;;;;;;;6.49;76.04;95696.11;107684;1290;22316;-87
2022/04/09 01:26:35;;;;;;;17.10;15.50;;;;;;;6.50;76.01;95695.48;107850;1290;22454;-88
2022/04/09 01:29:06;;;;;;;16.60;15.00;;;;;;;6.50;75.86;95687.84;107679;1290;22345;-88
2022/04/09 01:31:34;;;;;;;17.00;15.40;;;;;;;6.45;75.66;95680.93;107817;1290;22323;-88
2022/04/09 01:34:02;;;;;;;29.50;26.70;;;;;;;6.39;75.82;95677.55;107854;1290;22419;-88
2022/04/09 01:36:30;;;;;;;31.90;29.30;;;;;;;6.38;76.42;95674.15;107858;1290;22365;-87
2022/04/09 01:38:58;;;;;;;18.00;16.30;;;;;;;6.40;76.36;95672.94;107696;1290;22324;-84
2022/04/09 01:41:26;;;;;;;16.10;14.70;;;;;;;6.44;76.23;95680.60;107679;1290;22641;-84
2022/04/09 01:44:00;;;;;;;15.70;14.10;;;;;;;6.50;76.47;95677.34;107627;1290;22436;-83
2022/04/09 01:46:28;;;;;;;17.20;15.50;;;;;;;6.56;76.65;95678.81;107853;1290;22417;-84
2022/04/09 01:48:56;;;;;;;17.30;15.60;;;;;;;6.59;76.58;95675.10;107557;1291;23114;-84
2022/04/09 01:51:24;;;;;;;19.70;17.70;;;;;;;6.62;76.58;95680.92;108022;1290;22415;-84
2022/04/09 01:53:53;;;;;;;20.70;18.50;;;;;;;6.64;76.80;95685.88;107698;1290;22485;-85
2022/04/09 01:56:21;;;;;;;20.70;18.50;;;;;;;6.64;76.51;95677.78;107994;1290;22354;-85
2022/04/09 01:58:49;;;;;;;18.40;16.60;;;;;;;6.63;76.69;95676.89;107689;1290;22375;-84
2022/04/09 02:01:19;;;;;;;17.20;15.60;;;;;;;6.56;76.67;95675.44;107702;1290;22397;-84
2022/04/09 02:03:47;;;;;;;19.90;18.00;;;;;;;6.46;76.43;95674.07;107674;1290;22221;-84
2022/04/09 02:06:15;;;;;;;25.20;23.00;;;;;;;6.40;76.60;95676.06;108011;1290;23051;-83
2022/04/09 02:08:43;;;;;;;19.90;17.90;;;;;;;6.40;76.76;95674.70;107862;1291;22362;-84
2022/04/09 02:11:11;;;;;;;19.70;17.70;;;;;;;6.42;76.87;95680.13;107994;1289;22432;-85
2022/04/09 02:13:39;;;;;;;20.80;18.90;;;;;;;6.47;76.89;95673.17;107693;1290;22491;-83
2022/04/09 02:16:07;;;;;;;22.30;20.30;;;;;;;6.49;77.15;95666.67;107996;1290;22448;-85
2022/04/09 02:18:36;;;;;;;29.50;26.90;;;;;;;6.49;77.14;95673.73;108026;1290;22410;-85
2022/04/09 02:21:04;;;;;;;29.30;26.70;;;;;;;6.46;76.92;95670.92;108056;1289;22446;-81
2022/04/09 02:23:32;;;;;;;29.10;26.60;;;;;;;6.45;77.14;95670.08;108008;1290;22688;-84
2022/04/09 02:26:00;;;;;;;37.30;34.00;;;;;;;6.47;77.02;95659.80;107990;1289;22271;-82
2022/04/09 02:28:31;;;;;;;31.50;28.90;;;;;;;6.51;77.18;95656.99;108016;1290;22785;-83
2022/04/09 02:30:59;;;;;;;30.80;28.00;;;;;;;6.55;77.13;95637.11;107494;1291;22327;-84
2022/04/09 02:33:34;;;;;;;27.50;25.20;;;;;;;6.52;76.94;95611.33;107704;1290;22465;-83
2022/04/09 02:36:02;;;;;;;24.40;22.20;;;;;;;6.48;77.09;95561.69;108037;1290;22285;-84
2022/04/09 02:38:30;;;;;;;25.80;23.60;;;;;;;6.43;77.18;95536.62;107713;1290;22841;-83
2022/04/09 02:41:00;;;;;;;22.20;20.20;;;;;;;6.38;77.16;95558.31;107788;1290;22426;-83
2022/04/09 02:43:29;;;;;;;20.20;18.40;;;;;;;6.32;77.31;95597.55;107657;1291;22450;-83
2022/04/09 02:45:57;;;;;;;24.40;22.30;;;;;;;6.25;77.10;95596.81;107683;1290;22505;-83
2022/04/09 02:48:25;;;;;;;26.00;23.60;;;;;;;6.23;77.53;95579.92;107990;1290;22471;-83
2022/04/09 02:50:53;;;;;;;24.70;22.70;;;;;;;6.24;77.70;95592.27;107706;1290;22481;-84
2022/04/09 02:53:23;;;;;;;24.80;22.60;;;;;;;6.22;77.57;95585.25;107553;1291;22376;-83
2022/04/09 02:55:51;;;;;;;22.80;20.90;;;;;;;6.20;77.60;95585.55;107689;1290;22340;-83
2022/04/09 02:58:19;;;;;;;22.80;20.80;;;;;;;6.23;77.81;95582.70;108018;1290;23046;-82
2022/04/09 03:00:48;;;;;;;21.90;20.00;;;;;;;6.26;77.41;95566.75;107684;1290;22358;-83
2022/04/09 03:03:18;;;;;;;22.80;20.80;;;;;;;6.26;78.13;95570.65;107831;1290;22494;-82
2022/04/09 03:05:48;;;;;;;24.20;22.10;;;;;;;6.21;77.62;95568.18;107705;1290;22507;-84
2022/04/09 03:08:16;;;;;;;23.60;21.60;;;;;;;6.15;78.35;95543.67;107692;1293;22261;-84
2022/04/09 03:10:44;;;;;;;22.30;20.20;;;;;;;6.11;78.47;95536.65;107663;1291;22489;-80
2022/04/09 03:13:12;;;;;;;21.90;19.90;;;;;;;6.10;78.23;95543.95;107840;1291;22370;-81
2022/04/09 03:15:42;;;;;;;24.50;22.50;;;;;;;6.10;78.42;95533.92;108025;1290;22432;-81
2022/04/09 03:18:10;;;;;;;25.20;22.90;;;;;;;6.07;78.38;95522.30;107861;1290;22420;-81
2022/04/09 03:20:38;;;;;;;24.00;22.00;;;;;;;6.03;78.44;95530.55;108000;1290;22991;-83
2022/04/09 03:23:06;;;;;;;23.60;21.50;;;;;;;5.99;78.55;95526.80;107988;1290;23243;-83
2022/04/09 03:25:50;;;;;;;24.00;21.80;;;;;;;5.96;78.43;95523.38;107555;1290;23330;-83
2022/04/09 03:28:19;;;;;;;26.60;24.20;;;;;;;5.99;78.82;95526.51;108003;1290;22381;-82
2022/04/09 03:30:48;;;;;;;29.10;26.50;;;;;;;6.01;78.88;95527.11;107579;1290;22410;-83
2022/04/09 03:33:17;;;;;;;32.00;29.00;;;;;;;6.01;78.78;95512.01;107837;1291;22493;-83
2022/04/09 03:35:47;;;;;;;33.30;30.50;;;;;;;6.01;79.17;95503.27;107842;1290;22377;-84
2022/04/09 03:38:17;;;;;;;33.00;30.10;;;;;;;5.97;79.29;95504.00;107724;1290;23130;-85
2022/04/09 03:40:48;;;;;;;33.80;30.90;;;;;;;5.97;79.09;95506.67;107613;1293;22359;-85
2022/04/09 03:43:18;;;;;;;37.40;34.10;;;;;;;5.98;79.17;95511.36;107872;1290;22430;-83
2022/04/09 03:45:46;;;;;;;32.60;29.80;;;;;;;5.98;79.14;95508.39;107532;1290;22456;-85
2022/04/09 03:48:14;;;;;;;32.60;29.80;;;;;;;5.98;79.61;95508.46;107574;1291;22557;-85
2022/04/09 03:50:43;;;;;;;36.10;32.90;;;;;;;5.99;79.62;95503.35;107781;1290;22861;-85
2022/04/09 03:53:19;;;;;;;35.10;31.90;;;;;;;5.99;79.71;95505.89;107718;1290;22387;-84
2022/04/09 03:55:50;;;;;;;33.90;31.00;;;;;;;6.01;79.40;95508.11;107853;1290;22247;-83
2022/04/09 03:58:19;;;;;;;32.80;29.90;;;;;;;6.04;79.58;95505.08;107760;1291;22256;-84
2022/04/09 04:00:48;;;;;;;34.10;31.30;;;;;;;6.06;79.79;95497.60;107605;1290;22998;-86
2022/04/09 04:03:19;;;;;;;38.00;34.80;;;;;;;6.06;79.90;95496.21;107741;1290;22357;-87
2022/04/09 04:05:48;;;;;;;34.80;32.00;;;;;;;6.05;79.62;95499.40;107705;1290;22474;-86
2022/04/09 04:08:16;;;;;;;33.30;30.50;;;;;;;6.02;80.10;95502.40;107848;1290;23074;-87
2022/04/09 04:10:44;;;;;;;32.30;29.60;;;;;;;6.02;80.11;95507.76;107822;1290;22284;-86
2022/04/09 04:13:19;;;;;;;34.20;31.40;;;;;;;6.06;80.12;95511.57;107823;1290;22892;-86
2022/04/09 04:15:47;;;;;;;34.90;31.90;;;;;;;6.09;80.01;95520.91;107539;1293;22345;-88
2022/04/09 04:18:15;;;;;;;32.90;30.20;;;;;;;6.08;80.86;95527.59;107985;1290;22428;-85
2022/04/09 04:20:46;;;;;;;30.90;28.30;;;;;;;6.01;80.89;95535.38;107714;1290;23035;-85
2022/04/09 04:23:14;;;;;;;28.60;26.30;;;;;;;5.93;81.90;95544.08;107714;1290;22420;-84
2022/04/09 04:25:42;;;;;;;27.40;25.20;;;;;;;5.90;81.89;95557.00;108002;1290;22273;-85
2022/04/09 04:28:11;;;;;;;30.50;28.10;;;;;;;5.86;82.20;95563.44;107987;1290;22328;-86
2022/04/09 04:30:39;;;;;;;26.00;23.80;;;;;;;5.83;82.19;95572.10;107795;1290;22720;-85
2022/04/09 04:33:09;;;;;;;28.40;26.10;;;;;;;5.79;83.13;95572.39;107731;1290;23145;-85
2022/04/09 04:35:44;;;;;;;18.70;17.20;;;;;;;5.71;84.66;95589.14;107749;1290;23231;-85
2022/04/09 04:38:13;;;;;;;17.90;16.30;;;;;;;5.59;86.18;95568.99;108015;1290;22345;-85
2022/04/09 04:40:44;;;;;;;17.20;15.50;;;;;;;5.55;85.01;95586.08;107631;1289;22273;-85
2022/04/09 04:43:12;;;;;;;12.90;11.60;;;;;;;5.55;85.19;95603.23;107715;1290;23191;-86
2022/04/09 04:45:41;;;;;;;13.50;11.70;;;;;;;5.53;85.68;95581.84;107694;1290;22470;-85
2022/04/09 04:48:12;;;;;;;15.50;14.10;;;;;;;5.49;87.23;95565.25;107698;1290;22277;-85
2022/04/09 04:50:40;;;;;;;14.80;13.50;;;;;;;5.49;86.25;95596.54;107974;1290;23020;-84
2022/04/09 04:53:10;;;;;;;14.40;13.10;;;;;;;5.44;86.00;95591.47;107808;1290;22346;-84
2022/04/09 04:55:42;;;;;;;13.90;12.60;;;;;;;5.45;84.98;95592.72;107699;1290;22416;-85
2022/04/09 04:58:10;;;;;;;15.70;14.10;;;;;;;5.49;84.81;95586.96;107819;1290;22353;-83
2022/04/09 05:00:46;;;;;;;14.50;12.90;;;;;;;5.54;84.98;95569.84;107801;1290;22333;-83
2022/04/09 05:03:17;;;;;;;15.00;13.50;;;;;;;5.57;85.77;95566.46;107781;1290;22289;-83
2022/04/09 05:05:54;;;;;;;12.20;11.10;;;;;;;5.56;85.22;95581.90;107692;1289;22372;-83
2022/04/09 05:08:22;;;;;;;11.80;10.70;;;;;;;5.51;85.44;95590.42;107972;1290;22438;-85
2022/04/09 05:10:51;;;;;;;10.30;9.20;;;;;;;5.46;84.94;95588.86;107697;1291;23038;-85
2022/04/09 05:13:21;;;;;;;10.30;9.30;;;;;;;5.43;85.05;95584.38;107785;1290;22377;-86
2022/04/09 05:15:50;;;;;;;10.70;9.70;;;;;;;5.38;85.74;95596.49;107679;1290;22471;-85
2022/04/09 05:18:18;;;;;;;12.10;10.80;;;;;;;5.32;86.08;95611.27;107710;1290;22361;-85
2022/04/09 05:20:48;;;;;;;12.00;10.80;;;;;;;5.27;85.64;95628.46;107606;1290;22597;-84
2022/04/09 05:23:17;;;;;;;11.20;10.10;;;;;;;5.28;84.94;95639.16;107666;1291;22456;-86
2022/04/09 05:25:46;;;;;;;12.30;11.10;;;;;;;5.27;85.42;95639.61;107802;1291;22542;-85
2022/04/09 05:28:16;;;;;;;11.60;10.50;;;;;;;5.24;85.94;95630.70;107710;1290;22252;-86
2022/04/09 05:30:51;;;;;;;21.10;18.90;;;;;;;5.23;85.61;95632.80;107679;1290;22466;-84
2022/04/09 05:33:20;;;;;;;11.70;10.40;;;;;;;5.20;85.26;95632.90;107706;1290;22486;-84
2022/04/09 05:35:52;;;;;;;9.40;8.20;;;;;;;5.18;85.57;95651.59;107810;1289;22648;-87
2022/04/09 05:38:20;;;;;;;9.00;8.10;;;;;;;5.12;85.81;95659.03;107579;1293;22343;-85
2022/04/09 05:40:49;;;;;;;10.10;9.20;;;;;;;5.05;85.77;95671.42;107584;1290;23186;-85
2022/04/09 05:43:19;;;;;;;9.80;8.10;;;;;;;5.01;86.29;95701.83;107842;1289;22255;-88
2022/04/09 05:45:50;;;;;;;9.40;7.90;;;;;;;4.90;87.05;95726.61;107818;1290;22385;-87
2022/04/09 05:48:22;;;;;;;8.90;7.30;;;;;;;4.83;86.62;95745.04;107563;1291;23141;-89
2022/04/09 05:50:54;;;;;;;7.70;6.70;;;;;;;4.77;88.12;95760.92;107725;1290;22285;-90
2022/04/09 05:53:22;;;;;;;9.40;7.80;;;;;;;4.66;87.72;95775.54;107565;1290;22311;-90
2022/04/09 05:55:50;;;;;;;11.00;6.00;;;;;;;4.53;88.05;95799.48;107867;1290;22991;-88
2022/04/09 05:58:18;;;;;;;10.90;8.40;;;;;;;4.33;87.86;95805.93;107890;1290;22532;-86
2022/04/09 06:00:48;;;;;;;8.80;6.50;;;;;;;4.18;87.60;95814.30;107711;1290;22292;-89
2022/04/09 06:03:24;;;;;;;9.90;6.60;;;;;;;4.06;88.14;95837.20;107705;1290;22387;-91
2022/04/09 06:05:53;;;;;;;6.10;4.90;;;;;;;3.83;88.12;95849.52;108058;1290;22266;-91
2022/04/09 06:08:36;;;;;;;5.60;4.80;;;;;;;3.53;87.92;95848.91;107702;1290;22444;-88
2022/04/09 06:11:12;;;;;;;5.80;5.00;;;;;;;3.27;88.08;95866.83;107980;1290;23083;-91
2022/04/09 06:13:40;;;;;;;5.90;4.20;;;;;;;3.11;88.00;95886.02;107683;1290;22296;-88
2022/04/09 06:16:09;;;;;;;6.50;4.80;;;;;;;2.93;88.30;95895.67;107884;1290;22278;-92
2022/04/09 06:18:41;;;;;;;4.40;4.00;;;;;;;2.77;88.15;95892.14;107732;1290;22438;-90
2022/04/09 06:21:09;;;;;;;4.20;3.70;;;;;;;2.65;87.88;95897.30;107728;1290;22369;-90
2022/04/09 06:23:37;;;;;;;5.10;3.90;;;;;;;2.56;88.04;95895.10;108067;1289;23076;-90
2022/04/09 06:26:06;;;;;;;5.80;4.20;;;;;;;2.46;88.58;95903.38;107766;1290;22396;-89
2022/04/09 06:28:36;;;;;;;5.20;4.70;;;;;;;2.39;88.19;95901.69;107875;1289;22291;-90
2022/04/09 06:31:04;;;;;;;8.10;4.90;;;;;;;2.37;88.42;95893.87;107704;1290;23061;-91
2022/04/09 06:33:33;;;;;;;5.50;4.70;;;;;;;2.33;88.77;95905.43;107839;1290;23164;-90
2022/04/09 06:36:04;;;;;;;5.70;5.00;;;;;;;2.33;88.18;95926.25;107753;1290;23032;-89
2022/04/09 06:38:34;;;;;;;5.90;4.80;;;;;;;2.33;88.96;95939.60;107836;1290;23129;-89
2022/04/09 06:41:04;;;;;;;5.20;4.60;;;;;;;2.25;89.01;95951.11;107711;1290;22289;-87
2022/04/09 06:43:37;;;;;;;6.90;5.00;;;;;;;2.23;89.08;95974.84;107861;1290;23050;-91
2022/04/09 06:46:25;;;;;;;6.70;5.70;;;;;;;2.23;89.01;95997.00;107871;1290;22542;-91
2022/04/09 06:49:01;;;;;;;8.80;6.20;;;;;;;2.23;89.17;96013.16;107468;1294;22981;-92
2022/04/09 06:51:44;;;;;;;6.50;5.50;;;;;;;2.25;89.82;96018.55;108026;1290;22549;-91
2022/04/09 06:54:22;;;;;;;11.50;8.50;;;;;;;2.22;89.46;96028.06;107709;1290;22456;-90
2022/04/09 06:56:50;;;;;;;13.40;6.60;;;;;;;2.26;89.23;96048.26;107719;1290;22260;-91
2022/04/09 06:59:19;;;;;;;10.60;6.70;;;;;;;2.28;89.28;96064.10;107680;1290;22458;-88
2022/04/09 07:01:47;;;;;;;9.50;6.60;;;;;;;2.30;89.36;96081.83;107688;1290;22371;-89
2022/04/09 07:04:16;;;;;;;11.40;8.70;;;;;;;2.34;89.06;96096.12;108000;1289;22438;-92
2022/04/09 07:06:46;;;;;;;10.20;9.10;;;;;;;2.39;88.67;96094.44;108009;1290;22983;-88
2022/04/09 07:09:14;;;;;;;10.40;9.40;;;;;;;2.42;88.19;96092.54;108034;1289;22295;-94
2022/04/09 07:11:42;;;;;;;11.70;9.80;;;;;;;2.48;88.42;96110.67;108133;1290;22371;-93
2022/04/09 07:14:10;;;;;;;9.60;8.10;;;;;;;2.49;88.73;96126.55;108075;1290;22397;-90
2022/04/09 07:16:39;;;;;;;8.00;6.80;;;;;;;2.50;89.35;96138.62;108043;1290;22349;-92
2022/04/09 07:19:09;;;;;;;7.50;6.70;;;;;;;2.55;88.85;96153.76;108015;1290;22355;-92
2022/04/09 07:21:36;;;;;;;8.90;7.20;;;;;;;2.57;88.91;96153.83;108219;1290;22340;-85
2022/04/09 07:24:05;;;;;;;8.10;6.10;;;;;;;2.58;88.83;96158.96;108262;1290;22614;-89
2022/04/09 07:26:32;;;;;;;11.10;7.20;;;;;;;2.59;88.87;96160.08;108071;1290;22353;-93
2022/04/09 07:29:00;;;;;;;8.70;6.70;;;;;;;2.58;89.31;96173.33;108036;1290;22244;-89
2022/04/09 07:31:28;;;;;;;10.80;7.40;;;;;;;2.58;89.07;96175.04;108024;1290;22430;-91
2022/04/09 07:33:56;;;;;;;14.20;8.20;;;;;;;2.60;89.10;96185.31;108000;1290;22395;-92
2022/04/09 07:36:24;;;;;;;10.40;7.90;;;;;;;2.62;88.97;96208.53;107993;1290;22502;-92
2022/04/09 07:38:51;;;;;;;9.50;7.50;;;;;;;2.66;88.73;96219.05;108000;1290;22998;-91
2022/04/09 07:41:19;;;;;;;8.80;7.60;;;;;;;2.68;88.83;96231.20;107976;1290;23138;-88
2022/04/09 07:43:47;;;;;;;10.90;8.60;;;;;;;2.66;88.77;96248.63;107986;1290;22457;-88
2022/04/09 07:46:15;;;;;;;9.20;6.90;;;;;;;2.61;88.97;96262.15;108004;1290;22501;-89
2022/04/09 07:48:43;;;;;;;8.80;7.90;;;;;;;2.59;88.96;96266.90;108011;1290;22991;-91
2022/04/09 07:51:11;;;;;;;9.10;8.10;;;;;;;2.59;88.95;96282.91;107992;1289;22274;-90
2022/04/09 07:53:39;;;;;;;9.30;7.50;;;;;;;2.60;88.59;96303.17;107819;1290;23179;-88
2022/04/09 07:56:08;;;;;;;9.00;8.10;;;;;;;2.59;88.55;96309.39;107975;1290;23293;-89
2022/04/09 07:58:36;;;;;;;8.90;8.00;;;;;;;2.59;88.41;96304.61;108010;1290;22272;-87
2022/04/09 08:01:03;;;;;;;8.70;7.80;;;;;;;2.59;88.34;96319.71;107990;1290;22401;-90
2022/04/09 08:03:31;;;;;;;8.90;8.00;;;;;;;2.59;88.53;96341.89;107970;1290;23436;-89
2022/04/09 08:05:59;;;;;;;9.00;7.70;;;;;;;2.58;88.31;96345.24;108000;1290;22902;-88
2022/04/09 08:08:27;;;;;;;10.20;8.50;;;;;;;2.57;88.56;96358.30;107992;1290;23340;-90
2022/04/09 08:10:55;;;;;;;11.30;8.90;;;;;;;2.52;88.68;96367.40;107991;1290;23162;-85
2022/04/09 08:13:23;;;;;;;10.40;8.30;;;;;;;2.48;88.72;96377.50;107669;1290;22482;-90
2022/04/09 08:15:51;;;;;;;10.60;8.70;;;;;;;2.44;88.87;96381.09;107975;1290;22374;-89
2022/04/09 08:18:19;;;;;;;12.30;8.70;;;;;;;2.43;88.92;96386.06;107681;1290;22329;-88
2022/04/09 08:21:03;;;;;;;11.30;9.10;;;;;;;2.44;89.02;96403.80;107993;1290;22411;-90
2022/04/09 08:23:32;;;;;;;12.60;10.10;;;;;;;2.46;88.86;96411.11;107672;1290;22597;-90
2022/04/09 08:26:01;;;;;;;11.30;10.10;;;;;;;2.46;88.80;96413.88;107688;1290;23268;-89
2022/04/09 08:28:31;;;;;;;10.20;8.30;;;;;;;2.48;88.66;96409.50;108007;1290;22367;-87
2022/04/09 08:30:59;;;;;;;10.90;9.80;;;;;;;2.51;88.83;96404.05;108016;1290;22401;-89
2022/04/09 08:33:28;;;;;;;12.10;10.70;;;;;;;2.50;88.76;96405.80;108004;1290;22256;-91
2022/04/09 08:35:56;;;;;;;13.40;11.00;;;;;;;2.54;88.59;96406.52;108013;1290;23194;-90
2022/04/09 08:38:23;;;;;;;14.80;11.80;;;;;;;2.66;88.33;96413.70;108030;1290;22345;-94
2022/04/09 08:40:51;;;;;;;10.50;9.00;;;;;;;2.77;88.48;96438.90;107815;1290;22778;-92
2022/04/09 08:43:19;;;;;;;11.50;9.70;;;;;;;2.78;88.05;96451.55;108061;1290;22480;-93
2022/04/09 08:45:51;;;;;;;12.70;9.80;;;;;;;2.75;88.08;96454.15;107975;1290;22391;-91
2022/04/09 08:48:21;;;;;;;12.60;9.40;;;;;;;2.74;87.80;96451.87;108136;1290;22366;-90
2022/04/09 08:50:50;;;;;;;13.70;9.80;;;;;;;2.79;88.05;96455.33;108321;1290;22319;-81
2022/04/09 08:53:18;;;;;;;10.90;9.80;;;;;;;2.80;88.02;96464.02;108288;1290;22379;-93
2022/04/09 08:55:47;;;;;;;9.40;8.50;;;;;;;2.80;87.94;96460.42;108108;1290;22322;-93
2022/04/09 08:58:15;;;;;;;9.70;8.40;;;;;;;2.78;87.84;96467.09;107973;1291;22422;-92
2022/04/09 09:00:45;;;;;;;11.20;10.10;;;;;;;2.72;87.83;96479.17;108010;1290;22266;-92
2022/04/09 09:03:15;;;;;;;11.20;8.70;;;;;;;2.74;87.95;96490.91;108171;1290;22352;-86
2022/04/09 09:05:45;;;;;;;19.60;17.90;;;;;;;2.78;88.18;96484.48;108245;1290;22362;-93
2022/04/09 09:08:36;;;;;;;10.00;9.10;;;;;;;2.81;88.30;96483.17;107782;1290;22719;-89
2022/04/09 09:11:05;;;;;;;8.70;7.90;;;;;;;2.89;88.11;96496.60;107942;1290;22510;-94
2022/04/09 09:13:47;;;;;;;8.00;7.30;;;;;;;2.98;87.99;96496.92;108036;1290;22346;-91
2022/04/09 09:16:28;;;;;;;10.20;9.30;;;;;;;3.10;88.13;96504.40;108063;1290;22413;-92
2022/04/09 09:18:58;;;;;;;12.70;10.90;;;;;;;3.23;88.29;96523.20;108127;1290;22352;-91
2022/04/09 09:21:27;;;;;;;9.90;8.20;;;;;;;3.33;88.00;96539.27;108057;1290;23501;-91
2022/04/09 09:24:07;;;;;;;9.30;8.40;;;;;;;3.39;87.64;96552.93;108017;1290;22268;-91
2022/04/09 09:26:39;;;;;;;11.70;10.60;;;;;;;3.42;87.55;96561.20;107916;1290;22361;-90
2022/04/09 09:29:09;;;;;;;10.40;9.30;;;;;;;3.43;87.54;96566.77;108105;1290;22612;-90
2022/04/09 09:31:45;;;;;;;13.40;11.70;;;;;;;3.48;87.52;96574.66;107864;1290;23182;-92
2022/04/09 09:34:15;;;;;;;12.20;11.00;;;;;;;3.51;87.34;96593.31;108164;1290;22288;-90
2022/04/09 09:36:43;;;;;;;12.90;11.70;;;;;;;3.53;87.12;96605.54;108015;1290;23026;-92
2022/04/09 09:39:14;;;;;;;17.00;15.10;;;;;;;3.55;87.08;96608.27;108024;1290;22499;-90
2022/04/09 09:42:04;;;;;;;18.30;16.50;;;;;;;3.57;86.98;96612.45;108084;1290;22393;-91
2022/04/09 09:44:42;;;;;;;19.60;17.70;;;;;;;3.59;87.03;96619.05;108108;1290;22538;-92
2022/04/09 09:47:12;;;;;;;18.10;15.60;;;;;;;3.61;87.00;96620.62;108114;1290;22413;-89
2022/04/09 09:49:47;;;;;;;17.30;15.40;;;;;;;3.63;86.92;96623.15;107998;1290;22520;-89
2022/04/09 09:52:15;;;;;;;22.00;19.70;;;;;;;3.68;86.69;96619.27;108006;1290;22398;-92
2022/04/09 09:55:04;;;;;;;21.10;19.00;;;;;;;3.75;86.92;96623.27;107998;1290;22319;-89
2022/04/09 09:57:33;;;;;;;17.20;15.50;;;;;;;3.78;86.87;96621.11;108003;1289;22279;-89
2022/04/09 10:00:05;;;;;;;22.00;18.90;;;;;;;3.79;86.72;96616.66;108006;1290;22392;-88
2022/04/09 10:02:33;;;;;;;23.30;20.80;;;;;;;3.82;86.80;96620.31;108023;1290;22573;-90
2022/04/09 10:05:01;;;;;;;23.30;20.90;;;;;;;3.82;86.60;96623.08;107987;1290;22700;-88
2022/04/09 10:07:29;;;;;;;24.20;21.60;;;;;;;3.87;86.76;96628.83;107993;1290;22359;-87
2022/04/09 10:10:01;;;;;;;19.80;17.90;;;;;;;3.91;86.80;96643.60;108000;1290;22522;-90
2022/04/09 10:12:29;;;;;;;23.30;20.60;;;;;;;3.94;86.32;96649.27;107997;1289;23342;-89
2022/04/09 10:14:58;;;;;;;22.60;20.30;;;;;;;3.97;86.44;96652.68;107987;1290;22463;-90
2022/04/09 10:17:27;;;;;;;20.70;18.70;;;;;;;4.00;86.49;96658.24;107991;1290;22173;-89
2022/04/09 10:19:57;;;;;;;18.10;16.20;;;;;;;4.01;86.27;96655.04;107990;1290;22520;-84
2022/04/09 10:22:31;;;;;;;16.40;14.90;;;;;;;4.01;86.13;96653.00;108003;1290;22412;-84
2022/04/09 10:25:00;;;;;;;19.20;17.40;;;;;;;4.08;86.27;96659.69;107674;1290;22374;-85
2022/04/09 10:27:40;;;;;;;22.90;20.80;;;;;;;4.16;86.22;96659.58;107993;1290;23278;-84
2022/04/09 10:30:11;;;;;;;24.40;22.30;;;;;;;4.26;86.53;96660.67;107981;1290;22451;-87
2022/04/09 10:32:43;;;;;;;22.70;20.50;;;;;;;4.30;86.28;96663.98;108006;1290;22297;-86
2022/04/09 10:35:27;;;;;;;22.80;20.70;;;;;;;4.32;85.83;96670.23;108009;1290;22388;-87
2022/04/09 10:38:07;;;;;;;19.50;17.70;;;;;;;4.37;86.05;96686.55;107982;1289;22253;-86
2022/04/09 10:40:43;;;;;;;22.20;20.20;;;;;;;4.43;85.71;96685.45;107984;1290;23087;-86
2022/04/09 10:43:20;;;;;;;23.30;21.10;;;;;;;4.52;86.45;96680.02;107996;1290;22271;-86
2022/04/09 10:46:00;;;;;;;21.70;19.60;;;;;;;4.57;85.69;96675.27;108163;1290;22393;-87
2022/04/09 10:48:32;;;;;;;21.20;19.10;;;;;;;4.49;84.94;96689.46;108044;1290;22443;-90
2022/04/09 10:51:04;;;;;;;22.60;20.30;;;;;;;4.48;85.23;96687.66;107997;1290;23072;-87
2022/04/09 10:53:41;;;;;;;30.30;27.20;;;;;;;4.54;85.36;96696.44;107649;1290;22494;-91
2022/04/09 10:56:24;;;;;;;31.50;28.60;;;;;;;4.54;85.17;96701.50;107982;1290;22309;-89
2022/04/09 10:59:12;;;;;;;25.00;22.60;;;;;;;4.52;85.24;96716.31;107970;1290;22380;-89
2022/04/09 11:01:45;;;;;;;25.90;23.60;;;;;;;4.49;85.18;96701.69;107662;1290;22179;-89
2022/04/09 11:04:30;;;;;;;21.30;19.10;;;;;;;4.54;85.28;96700.44;107968;1289;22451;-89
2022/04/09 11:07:21;;;;;;;23.60;21.40;;;;;;;4.61;85.35;96694.10;108001;1290;22372;-89
2022/04/09 11:10:06;;;;;;;24.40;21.80;;;;;;;4.63;85.35;96693.64;107988;1290;22419;-90
2022/04/09 11:12:40;;;;;;;21.20;19.30;;;;;;;4.64;85.14;96694.80;107881;1290;22374;-91
2022/04/09 11:15:15;;;;;;;19.60;17.90;;;;;;;4.65;85.52;96705.79;107994;1290;22342;-89
2022/04/09 11:17:43;;;;;;;;;;;;;;;4.65;85.28;96704.56;107998;1289;22504;-87
2022/04/09 11:20:22;;;;;;;24.20;22.10;;;;;;;4.64;85.11;96712.52;107902;1290;23008;-91
2022/04/09 11:22:52;;;;;;;22.30;20.30;;;;;;;4.63;85.05;96730.84;107990;1290;22339;-87
2022/04/09 11:25:23;;;;;;;22.70;20.40;;;;;;;4.58;84.85;96742.05;107992;1290;22344;-88
2022/04/09 11:28:10;;;;;;;22.50;20.10;;;;;;;4.55;84.78;96747.65;107649;1290;22964;-90
2022/04/09 11:31:00;;;;;;;30.40;27.80;;;;;;;4.50;84.26;96761.59;108047;1290;22462;-91
2022/04/09 11:33:28;;;;;;;28.20;25.70;;;;;;;4.43;84.40;96768.08;108017;1290;22418;-91
2022/04/09 11:35:58;;;;;;;25.20;22.90;;;;;;;4.37;84.43;96771.30;108012;1290;22326;-91
2022/04/09 11:38:26;;;;;;;25.40;23.20;;;;;;;4.34;84.72;96770.96;107745;1290;22170;-88